Time;durP1;ratioP1;P1;durP2;ratioP2;P2;SDS_P1;SDS_P2;PMS_P1;PMS_P2;Temp;Humidity;BMP_temperature;BMP_pressure;BME280_temperature;BME280_humidity;BME280_pressure;Samples;Min_cycle;Max_cycle;Signal;HPM_P1;HPM_P2
2023/03/15 00:00:11;;;;;;;60.40;5.65;;;;;;;;;;5052029;28;20216;-70
2023/03/15 00:02:38;;;;;;;62.08;5.80;;;;;;;;;;5050929;28;20210;-70
2023/03/15 00:05:07;;;;;;;60.03;5.55;;;;;;;;;;5052420;28;20729;-70
2023/03/15 00:07:34;;;;;;;63.97;6.43;;;;;;;;;;5052506;28;20312;-71
2023/03/15 00:10:01;;;;;;;62.03;5.03;;;;;;;;;;5052152;28;20666;-70
2023/03/15 00:12:28;;;;;;;60.33;5.22;;;;;;;;;;5052134;28;20198;-70
2023/03/15 00:14:55;;;;;;;61.83;5.88;;;;;;;;;;5052126;28;20198;-70
2023/03/15 00:17:22;;;;;;;62.30;5.53;;;;;;;;;;5052350;28;20222;-70
2023/03/15 00:19:50;;;;;;;60.58;5.47;;;;;;;;;;5051950;28;20211;-70
2023/03/15 00:22:18;;;;;;;61.10;6.78;;;;;;;;;;5052203;28;20232;-70
2023/03/15 00:24:45;;;;;;;61.58;6.35;;;;;;;;;;5051295;28;20766;-69
2023/03/15 00:27:13;;;;;;;61.00;5.68;;;;;;;;;;5051909;28;20239;-70
2023/03/15 00:29:40;;;;;;;61.88;6.30;;;;;;;;;;5051671;28;20559;-70
2023/03/15 00:32:07;;;;;;;61.83;6.68;;;;;;;;;;5052058;28;20205;-70
2023/03/15 00:34:34;;;;;;;61.70;6.72;;;;;;;;;;5051982;28;20213;-69
2023/03/15 00:37:01;;;;;;;62.03;6.78;;;;;;;;;;5051949;28;20232;-70
2023/03/15 00:39:30;;;;;;;62.45;7.40;;;;;;;;;;5051499;28;20670;-70
2023/03/15 00:41:57;;;;;;;66.55;7.85;;;;;;;;;;5051810;28;20216;-69
2023/03/15 00:44:25;;;;;;;62.65;8.18;;;;;;;;;;5051554;28;20732;-69
2023/03/15 00:46:52;;;;;;;64.72;8.60;;;;;;;;;;5051910;28;20247;-69
2023/03/15 00:49:20;;;;;;;66.15;7.95;;;;;;;;;;5051452;28;20206;-69
2023/03/15 00:51:47;;;;;;;64.32;8.90;;;;;;;;;;5051759;28;20216;-69
2023/03/15 00:54:14;;;;;;;66.05;9.10;;;;;;;;;;5051592;28;20674;-69
2023/03/15 00:56:42;;;;;;;62.97;7.43;;;;;;;;;;5051680;28;20602;-69
2023/03/15 00:59:10;;;;;;;64.30;8.35;;;;;;;;;;5051400;28;20201;-70
2023/03/15 01:01:39;;;;;;;65.93;9.48;;;;;;;;;;5051800;28;20208;-69
2023/03/15 01:04:07;;;;;;;64.40;7.93;;;;;;;;;;5051601;28;20324;-69
2023/03/15 01:06:34;;;;;;;65.20;8.38;;;;;;;;;;5051530;28;20232;-69
2023/03/15 01:09:01;;;;;;;63.85;7.95;;;;;;;;;;5051301;28;20220;-69
2023/03/15 01:11:28;;;;;;;63.92;8.20;;;;;;;;;;5051444;28;20212;-69
2023/03/15 01:13:58;;;;;;;64.82;8.30;;;;;;;;;;5051484;28;20227;-69
2023/03/15 01:16:25;;;;;;;65.00;8.50;;;;;;;;;;5051348;28;20229;-70
2023/03/15 01:18:52;;;;;;;67.95;8.98;;;;;;;;;;5051132;28;20216;-69
2023/03/15 01:21:20;;;;;;;63.72;8.57;;;;;;;;;;5051622;28;20206;-69
2023/03/15 01:23:47;;;;;;;63.95;8.75;;;;;;;;;;5051346;28;20703;-69
2023/03/15 01:26:15;;;;;;;70.65;8.45;;;;;;;;;;5051309;28;20218;-70
2023/03/15 01:28:42;;;;;;;64.85;8.57;;;;;;;;;;5051194;28;20217;-69
2023/03/15 01:31:15;;;;;;;64.80;8.90;;;;;;;;;;5051523;28;20212;-69
2023/03/15 01:33:42;;;;;;;66.35;7.97;;;;;;;;;;5051344;28;20210;-69
2023/03/15 01:36:11;;;;;;;65.57;8.10;;;;;;;;;;5054711;28;20221;-69
2023/03/15 01:38:38;;;;;;;66.90;8.05;;;;;;;;;;5054864;28;20689;-69
2023/03/15 01:41:06;;;;;;;66.80;8.30;;;;;;;;;;5055134;28;20201;-69
2023/03/15 01:43:33;;;;;;;66.53;8.63;;;;;;;;;;5055263;28;20216;-70
2023/03/15 01:46:03;;;;;;;62.35;7.82;;;;;;;;;;5055095;28;20905;-69
2023/03/15 01:48:34;;;;;;;65.70;7.55;;;;;;;;;;5054977;28;20206;-69
2023/03/15 01:51:02;;;;;;;63.83;8.07;;;;;;;;;;5054958;28;20216;-70
2023/03/15 01:53:30;;;;;;;64.70;9.00;;;;;;;;;;5055112;28;20297;-69
2023/03/15 01:55:58;;;;;;;63.38;7.50;;;;;;;;;;5055106;28;20218;-69
2023/03/15 01:58:27;;;;;;;64.63;7.75;;;;;;;;;;5054680;28;20212;-69
2023/03/15 02:00:54;;;;;;;63.80;7.65;;;;;;;;;;5054643;28;20210;-69
2023/03/15 02:03:23;;;;;;;64.20;8.30;;;;;;;;;;5054601;28;20209;-70
2023/03/15 02:05:54;;;;;;;67.32;8.55;;;;;;;;;;5054731;28;20226;-69
2023/03/15 02:08:23;;;;;;;63.38;7.40;;;;;;;;;;5054650;28;20595;-69
2023/03/15 02:10:52;;;;;;;65.55;8.35;;;;;;;;;;5054515;28;20202;-69
2023/03/15 02:13:22;;;;;;;67.25;8.93;;;;;;;;;;5055018;28;20209;-69
2023/03/15 02:15:49;;;;;;;64.53;7.72;;;;;;;;;;5054237;28;20205;-69
2023/03/15 02:18:16;;;;;;;64.72;8.23;;;;;;;;;;5054457;28;20206;-69
2023/03/15 02:20:48;;;;;;;64.00;7.05;;;;;;;;;;5054338;28;20205;-69
2023/03/15 02:23:18;;;;;;;67.13;7.45;;;;;;;;;;5054602;28;20208;-69
2023/03/15 02:25:49;;;;;;;65.90;6.93;;;;;;;;;;5054381;28;20367;-70
2023/03/15 02:28:19;;;;;;;61.75;7.10;;;;;;;;;;5054104;28;20209;-70
2023/03/15 02:30:47;;;;;;;62.40;6.97;;;;;;;;;;5054170;28;20201;-69
2023/03/15 02:33:17;;;;;;;67.57;7.75;;;;;;;;;;5054285;28;20209;-69
2023/03/15 02:35:44;;;;;;;69.70;7.13;;;;;;;;;;5054257;28;20206;-69
2023/03/15 02:38:11;;;;;;;62.60;6.35;;;;;;;;;;5053930;28;20689;-69
2023/03/15 02:40:39;;;;;;;61.35;5.93;;;;;;;;;;5053694;28;20209;-69
2023/03/15 02:43:07;;;;;;;64.15;6.82;;;;;;;;;;5054113;28;20675;-69
2023/03/15 02:45:36;;;;;;;63.55;5.95;;;;;;;;;;5053465;28;20225;-70
2023/03/15 02:48:06;;;;;;;64.78;7.63;;;;;;;;;;5051761;28;20538;-69
2023/03/15 02:50:33;;;;;;;62.85;7.38;;;;;;;;;;5053583;28;20218;-69
2023/03/15 02:53:01;;;;;;;62.65;7.70;;;;;;;;;;5053961;28;20260;-69
2023/03/15 02:55:29;;;;;;;62.55;5.93;;;;;;;;;;5053683;28;20219;-69
2023/03/15 02:57:56;;;;;;;61.70;6.15;;;;;;;;;;5053594;28;20221;-70
2023/03/15 03:00:23;;;;;;;64.80;7.13;;;;;;;;;;5053685;28;20610;-70
2023/03/15 03:02:51;;;;;;;63.80;6.82;;;;;;;;;;5053849;28;20641;-69
2023/03/15 03:05:18;;;;;;;61.38;6.60;;;;;;;;;;5053515;28;20230;-69
2023/03/15 03:07:46;;;;;;;61.00;6.50;;;;;;;;;;5053354;28;20226;-69
2023/03/15 03:10:14;;;;;;;62.65;6.07;;;;;;;;;;5053064;28;20216;-69
2023/03/15 03:12:42;;;;;;;65.50;6.53;;;;;;;;;;5053478;28;20204;-69
2023/03/15 03:15:10;;;;;;;65.88;5.80;;;;;;;;;;5053462;28;20205;-69
2023/03/15 03:17:37;;;;;;;63.15;5.78;;;;;;;;;;5053374;28;20229;-69
2023/03/15 03:20:08;;;;;;;61.60;5.45;;;;;;;;;;5053089;28;20210;-69
2023/03/15 03:22:35;;;;;;;62.47;6.70;;;;;;;;;;5053607;28;20264;-69
2023/03/15 03:25:02;;;;;;;62.50;5.90;;;;;;;;;;5053290;28;20230;-69
2023/03/15 03:27:29;;;;;;;60.25;5.40;;;;;;;;;;5053074;28;20239;-69
2023/03/15 03:29:57;;;;;;;60.67;5.55;;;;;;;;;;5052842;28;20214;-69
2023/03/15 03:32:24;;;;;;;60.92;5.07;;;;;;;;;;5053151;28;20601;-69
2023/03/15 03:34:51;;;;;;;60.08;4.93;;;;;;;;;;5053013;28;20201;-69
2023/03/15 03:37:20;;;;;;;61.03;4.95;;;;;;;;;;5053325;28;20232;-69
2023/03/15 03:39:47;;;;;;;61.75;5.43;;;;;;;;;;5052723;28;20216;-69
2023/03/15 03:42:15;;;;;;;60.92;6.50;;;;;;;;;;5052957;28;20205;-69
2023/03/15 03:44:42;;;;;;;61.53;5.25;;;;;;;;;;5052688;28;20205;-69
2023/03/15 03:47:09;;;;;;;60.28;4.90;;;;;;;;;;5052585;28;20240;-69
2023/03/15 03:49:36;;;;;;;61.58;5.30;;;;;;;;;;5052325;28;20682;-69
2023/03/15 03:52:03;;;;;;;60.05;5.60;;;;;;;;;;5052934;28;20213;-69
2023/03/15 03:54:32;;;;;;;63.47;4.43;;;;;;;;;;5052802;28;20216;-70
2023/03/15 03:56:59;;;;;;;63.70;5.60;;;;;;;;;;5052605;28;20221;-69
2023/03/15 03:59:26;;;;;;;60.92;4.90;;;;;;;;;;5051940;28;20209;-70
2023/03/15 04:01:53;;;;;;;60.97;4.68;;;;;;;;;;5052468;28;20217;-69
2023/03/15 04:04:20;;;;;;;65.65;5.50;;;;;;;;;;5052689;28;20215;-69
2023/03/15 04:06:49;;;;;;;61.22;5.80;;;;;;;;;;5052489;28;20230;-69
2023/03/15 04:09:17;;;;;;;60.08;4.95;;;;;;;;;;5052177;28;20481;-69
2023/03/15 04:11:46;;;;;;;62.58;5.68;;;;;;;;;;5052494;28;20209;-69
2023/03/15 04:14:14;;;;;;;62.25;5.20;;;;;;;;;;5052244;28;20209;-69
2023/03/15 04:16:41;;;;;;;64.38;4.80;;;;;;;;;;5052083;28;20233;-69
2023/03/15 04:19:08;;;;;;;63.25;5.43;;;;;;;;;;5051796;28;20213;-69
2023/03/15 04:21:36;;;;;;;61.72;4.53;;;;;;;;;;5052429;28;20215;-69
2023/03/15 04:24:04;;;;;;;60.47;5.30;;;;;;;;;;5052094;28;20208;-69
2023/03/15 04:26:31;;;;;;;62.63;5.13;;;;;;;;;;5051852;28;20291;-69
2023/03/15 04:28:59;;;;;;;61.05;5.53;;;;;;;;;;5051628;28;20209;-69
2023/03/15 04:31:27;;;;;;;62.22;5.53;;;;;;;;;;5052286;28;20207;-69
2023/03/15 04:33:54;;;;;;;61.05;4.93;;;;;;;;;;5052294;28;20206;-69
2023/03/15 04:36:21;;;;;;;63.75;4.85;;;;;;;;;;5052006;28;20221;-69
2023/03/15 04:38:48;;;;;;;63.15;4.88;;;;;;;;;;5051588;28;20496;-69
2023/03/15 04:41:15;;;;;;;60.78;5.57;;;;;;;;;;5051913;28;20210;-69
2023/03/15 04:43:43;;;;;;;63.80;4.97;;;;;;;;;;5051730;28;20209;-69
2023/03/15 04:46:11;;;;;;;62.50;6.03;;;;;;;;;;5051802;28;20230;-69
2023/03/15 04:48:38;;;;;;;63.50;6.80;;;;;;;;;;5051434;28;20208;-69
2023/03/15 04:51:05;;;;;;;61.20;5.53;;;;;;;;;;5051876;28;20208;-70
2023/03/15 04:53:32;;;;;;;62.83;5.57;;;;;;;;;;5051788;28;20208;-69
2023/03/15 04:56:00;;;;;;;62.83;5.20;;;;;;;;;;5051541;28;20220;-69
2023/03/15 04:58:27;;;;;;;59.60;4.85;;;;;;;;;;5051796;28;20573;-69
2023/03/15 05:00:54;;;;;;;61.00;5.10;;;;;;;;;;5051594;28;20205;-69
2023/03/15 05:03:22;;;;;;;60.28;5.55;;;;;;;;;;5051818;28;20567;-69
2023/03/15 05:05:49;;;;;;;68.88;6.30;;;;;;;;;;5051406;28;20306;-69
2023/03/15 05:08:17;;;;;;;60.00;5.07;;;;;;;;;;5051483;28;20205;-69
2023/03/15 05:10:44;;;;;;;63.17;5.30;;;;;;;;;;5053907;28;20708;-69
2023/03/15 05:13:11;;;;;;;64.00;5.65;;;;;;;;;;5055833;28;20213;-69
2023/03/15 05:15:38;;;;;;;62.72;5.90;;;;;;;;;;5055543;28;20208;-69
2023/03/15 05:18:06;;;;;;;62.60;6.93;;;;;;;;;;5055601;28;20607;-69
2023/03/15 05:20:34;;;;;;;67.55;6.50;;;;;;;;;;5055364;28;20259;-69
2023/03/15 05:23:03;;;;;;;63.53;6.32;;;;;;;;;;5055549;28;20206;-69
2023/03/15 05:25:30;;;;;;;61.83;6.45;;;;;;;;;;5055366;28;20574;-69
2023/03/15 05:27:57;;;;;;;64.78;6.28;;;;;;;;;;5055510;28;20224;-69
2023/03/15 05:30:24;;;;;;;60.70;6.10;;;;;;;;;;5055257;28;20594;-69
2023/03/15 05:32:51;;;;;;;63.33;6.50;;;;;;;;;;5055766;28;20211;-69
2023/03/15 05:35:18;;;;;;;62.97;6.20;;;;;;;;;;5055287;28;20205;-69
2023/03/15 05:37:47;;;;;;;65.03;6.97;;;;;;;;;;5055031;28;20278;-69
2023/03/15 05:40:14;;;;;;;61.95;5.93;;;;;;;;;;5055130;28;20202;-69
2023/03/15 05:42:41;;;;;;;66.05;7.45;;;;;;;;;;5055452;28;20585;-69
2023/03/15 05:45:09;;;;;;;62.03;6.07;;;;;;;;;;5055439;28;20210;-69
2023/03/15 05:47:36;;;;;;;62.65;6.65;;;;;;;;;;5055609;28;20233;-69
2023/03/15 05:50:03;;;;;;;62.17;6.28;;;;;;;;;;5055721;28;20209;-69
2023/03/15 05:52:32;;;;;;;62.92;6.05;;;;;;;;;;5055714;28;20236;-69
2023/03/15 05:55:00;;;;;;;63.95;6.95;;;;;;;;;;5055576;28;20215;-69
2023/03/15 05:57:27;;;;;;;68.85;6.53;;;;;;;;;;5055147;28;20224;-69
2023/03/15 05:59:54;;;;;;;63.33;7.47;;;;;;;;;;5054876;28;20674;-69
2023/03/15 06:02:22;;;;;;;64.90;7.10;;;;;;;;;;5055249;28;20210;-69
2023/03/15 06:04:49;;;;;;;63.22;6.18;;;;;;;;;;5055060;28;20213;-69
2023/03/15 06:07:16;;;;;;;66.22;8.27;;;;;;;;;;5055361;28;20233;-69
2023/03/15 06:09:43;;;;;;;63.10;6.25;;;;;;;;;;5055022;28;20217;-69
2023/03/15 06:12:12;;;;;;;62.80;6.80;;;;;;;;;;5054991;28;20315;-69
2023/03/15 06:14:39;;;;;;;63.60;7.10;;;;;;;;;;5054984;28;20202;-69
2023/03/15 06:17:06;;;;;;;64.20;7.70;;;;;;;;;;5054634;28;20319;-69
2023/03/15 06:19:33;;;;;;;62.08;7.05;;;;;;;;;;5054205;28;20679;-68
2023/03/15 06:22:00;;;;;;;63.25;7.40;;;;;;;;;;5054569;28;20206;-68
2023/03/15 06:24:28;;;;;;;64.47;8.23;;;;;;;;;;5054489;28;20210;-68
2023/03/15 06:26:55;;;;;;;65.65;7.50;;;;;;;;;;5054161;28;20236;-68
2023/03/15 06:29:23;;;;;;;65.22;7.22;;;;;;;;;;5053974;28;20215;-68
2023/03/15 06:31:51;;;;;;;65.00;8.07;;;;;;;;;;5054108;28;20210;-68
2023/03/15 06:34:19;;;;;;;65.93;8.07;;;;;;;;;;5054596;28;20563;-68
2023/03/15 06:36:48;;;;;;;66.80;7.55;;;;;;;;;;5053955;28;20226;-69
2023/03/15 06:39:15;;;;;;;68.25;8.15;;;;;;;;;;5053980;28;20632;-69
2023/03/15 06:41:42;;;;;;;64.75;8.05;;;;;;;;;;5054101;28;20205;-69
2023/03/15 06:44:09;;;;;;;68.22;8.85;;;;;;;;;;5054213;28;20205;-69
2023/03/15 06:46:38;;;;;;;66.20;9.10;;;;;;;;;;5053581;28;20236;-69
2023/03/15 06:49:05;;;;;;;68.40;8.65;;;;;;;;;;5053619;28;20215;-69
2023/03/15 06:51:32;;;;;;;65.75;8.65;;;;;;;;;;5054103;28;20205;-69
2023/03/15 06:53:59;;;;;;;67.85;9.45;;;;;;;;;;5053794;28;20205;-68
2023/03/15 06:56:27;;;;;;;64.93;8.35;;;;;;;;;;5053726;28;20227;-69
2023/03/15 06:58:54;;;;;;;68.18;8.80;;;;;;;;;;5053322;28;20209;-68
2023/03/15 07:01:21;;;;;;;73.00;9.40;;;;;;;;;;5053740;28;20676;-68
2023/03/15 07:03:49;;;;;;;66.00;8.57;;;;;;;;;;5053977;28;20208;-69
2023/03/15 07:06:17;;;;;;;73.15;9.52;;;;;;;;;;5053589;28;20240;-69
2023/03/15 07:08:44;;;;;;;66.88;9.02;;;;;;;;;;5053287;28;20206;-69
2023/03/15 07:11:11;;;;;;;65.20;8.23;;;;;;;;;;5053513;28;20210;-69
2023/03/15 07:13:38;;;;;;;64.65;8.25;;;;;;;;;;5053927;28;20684;-68
2023/03/15 07:16:05;;;;;;;61.67;7.88;;;;;;;;;;5053662;28;20227;-68
2023/03/15 07:18:33;;;;;;;66.68;7.63;;;;;;;;;;5053171;28;20692;-69
2023/03/15 07:21:02;;;;;;;65.55;7.13;;;;;;;;;;5053226;28;20347;-69
2023/03/15 07:23:30;;;;;;;63.03;7.95;;;;;;;;;;5053181;28;20296;-69
2023/03/15 07:25:58;;;;;;;68.53;7.80;;;;;;;;;;5053050;28;20233;-69
2023/03/15 07:28:25;;;;;;;65.78;6.88;;;;;;;;;;5053083;28;20205;-68
2023/03/15 07:30:54;;;;;;;67.65;6.78;;;;;;;;;;5052823;28;20209;-68
2023/03/15 07:33:22;;;;;;;64.35;6.40;;;;;;;;;;5052682;28;20210;-69
2023/03/15 07:35:49;;;;;;;60.05;5.47;;;;;;;;;;5053055;28;20206;-69
2023/03/15 07:38:18;;;;;;;63.53;6.03;;;;;;;;;;5052741;28;20206;-69
2023/03/15 07:40:45;;;;;;;68.82;6.68;;;;;;;;;;5052861;28;20220;-69
2023/03/15 07:43:12;;;;;;;66.18;6.57;;;;;;;;;;5053223;28;20205;-69
2023/03/15 07:45:39;;;;;;;66.00;6.07;;;;;;;;;;5052550;28;20712;-69
2023/03/15 07:48:07;;;;;;;60.53;4.30;;;;;;;;;;5052682;28;20256;-69
2023/03/15 07:50:34;;;;;;;63.22;5.15;;;;;;;;;;5052597;28;20206;-69
2023/03/15 07:53:01;;;;;;;63.05;5.10;;;;;;;;;;5052841;28;20213;-69
2023/03/15 07:55:30;;;;;;;65.90;5.25;;;;;;;;;;5052494;28;20252;-70
2023/03/15 07:57:57;;;;;;;64.10;4.88;;;;;;;;;;5052755;28;20599;-70
2023/03/15 08:00:25;;;;;;;63.58;5.30;;;;;;;;;;5052545;28;20206;-70
2023/03/15 08:02:52;;;;;;;62.45;5.05;;;;;;;;;;5052460;28;20212;-70
2023/03/15 08:05:19;;;;;;;63.75;4.50;;;;;;;;;;5052498;28;20212;-70
2023/03/15 08:07:46;;;;;;;65.20;5.35;;;;;;;;;;5052239;28;20240;-69
2023/03/15 08:10:13;;;;;;;61.10;5.25;;;;;;;;;;5052512;28;20202;-70
2023/03/15 08:12:42;;;;;;;68.60;5.43;;;;;;;;;;5052541;28;20206;-70
2023/03/15 08:15:10;;;;;;;66.70;4.75;;;;;;;;;;5052455;28;20205;-70
2023/03/15 08:17:38;;;;;;;61.30;4.75;;;;;;;;;;5052342;28;20713;-70
2023/03/15 08:20:06;;;;;;;59.90;4.22;;;;;;;;;;5051798;28;20216;-70
2023/03/15 08:22:33;;;;;;;62.92;3.83;;;;;;;;;;5052572;28;20214;-70
2023/03/15 08:25:00;;;;;;;63.08;4.43;;;;;;;;;;5052344;28;20252;-69
2023/03/15 08:27:28;;;;;;;62.83;4.30;;;;;;;;;;5052065;28;20275;-69
2023/03/15 08:29:56;;;;;;;61.90;4.68;;;;;;;;;;5051856;28;20587;-70
2023/03/15 08:32:23;;;;;;;60.40;4.25;;;;;;;;;;5052147;28;20210;-69
2023/03/15 08:34:51;;;;;;;59.72;4.40;;;;;;;;;;5051925;28;20210;-70
2023/03/15 08:37:19;;;;;;;64.53;5.13;;;;;;;;;;5052020;28;20601;-70
2023/03/15 08:39:46;;;;;;;61.50;5.32;;;;;;;;;;5051667;28;20213;-69
2023/03/15 08:42:13;;;;;;;60.50;3.95;;;;;;;;;;5051858;28;20686;-69
2023/03/15 08:44:40;;;;;;;59.58;3.97;;;;;;;;;;5051016;28;20558;-69
2023/03/15 08:47:09;;;;;;;61.10;4.25;;;;;;;;;;5051649;28;20234;-70
2023/03/15 08:49:36;;;;;;;59.83;4.00;;;;;;;;;;5051448;28;20671;-69
2023/03/15 08:52:03;;;;;;;61.90;4.65;;;;;;;;;;5052041;28;20212;-70
2023/03/15 08:54:30;;;;;;;63.35;4.15;;;;;;;;;;5051886;28;20240;-69
2023/03/15 08:56:58;;;;;;;62.55;4.00;;;;;;;;;;5051537;28;20224;-69
2023/03/15 08:59:25;;;;;;;62.58;4.30;;;;;;;;;;5051228;28;20213;-69
2023/03/15 09:01:52;;;;;;;61.70;4.75;;;;;;;;;;5051546;28;20206;-69
2023/03/15 09:04:20;;;;;;;58.88;3.70;;;;;;;;;;5051404;28;20670;-69
2023/03/15 09:06:47;;;;;;;61.30;4.10;;;;;;;;;;5051487;28;20225;-70
2023/03/15 09:09:16;;;;;;;62.80;3.78;;;;;;;;;;5051302;28;20202;-70
2023/03/15 09:11:43;;;;;;;60.58;4.25;;;;;;;;;;5051584;28;20236;-69
2023/03/15 09:14:10;;;;;;;60.65;4.03;;;;;;;;;;5051439;28;20201;-69
2023/03/15 09:16:37;;;;;;;69.27;4.77;;;;;;;;;;5051187;28;20232;-68
2023/03/15 09:19:04;;;;;;;60.57;4.07;;;;;;;;;;5051027;28;20456;-70
2023/03/15 09:21:32;;;;;;;61.45;3.80;;;;;;;;;;5051272;28;20984;-70
2023/03/15 09:24:00;;;;;;;64.27;4.10;;;;;;;;;;5051161;28;20696;-69
2023/03/15 09:26:27;;;;;;;59.10;3.40;;;;;;;;;;5051720;28;20802;-69
2023/03/15 09:28:54;;;;;;;60.67;3.40;;;;;;;;;;5051029;28;20452;-68
2023/03/15 09:31:21;;;;;;;59.37;4.43;;;;;;;;;;5051277;28;20451;-68
2023/03/15 09:33:48;;;;;;;63.53;3.90;;;;;;;;;;5051400;28;20483;-68
2023/03/15 09:36:15;;;;;;;61.37;3.93;;;;;;;;;;5051205;28;20522;-68
2023/03/15 09:38:46;;;;;;;58.73;3.60;;;;;;;;;;5050985;28;20454;-68
2023/03/15 09:41:18;;;;;;;58.00;3.47;;;;;;;;;;5050981;28;20570;-67
2023/03/15 09:43:58;;;;;;;62.60;4.20;;;;;;;;;;5050199;28;20983;-68
2023/03/15 09:46:28;;;;;;;63.47;4.10;;;;;;;;;;5050381;28;20494;-68
2023/03/15 09:48:57;;;;;;;61.13;3.73;;;;;;;;;;5050326;28;20450;-68
2023/03/15 09:51:30;;;;;;;59.80;4.07;;;;;;;;;;5050250;28;20528;-68
2023/03/15 09:54:01;;;;;;;60.03;3.60;;;;;;;;;;5050140;28;20473;-68
2023/03/15 09:56:29;;;;;;;62.40;3.53;;;;;;;;;;5052900;28;20460;-68
2023/03/15 09:58:58;;;;;;;59.97;3.87;;;;;;;;;;5054572;28;20451;-68
2023/03/15 10:01:29;;;;;;;59.87;3.33;;;;;;;;;;5055015;28;20535;-68
2023/03/15 10:03:56;;;;;;;63.93;3.67;;;;;;;;;;5054680;28;20454;-68
2023/03/15 10:06:26;;;;;;;59.10;3.40;;;;;;;;;;5054640;28;20550;-69
2023/03/15 10:08:55;;;;;;;63.20;3.50;;;;;;;;;;5054233;28;20487;-69
2023/03/15 10:11:27;;;;;;;59.40;3.53;;;;;;;;;;5054746;28;20454;-69
2023/03/15 10:14:00;;;;;;;62.03;3.23;;;;;;;;;;5054779;28;20448;-69
2023/03/15 10:16:33;;;;;;;61.70;3.40;;;;;;;;;;5054501;28;20483;-69
2023/03/15 10:19:06;;;;;;;58.27;3.20;;;;;;;;;;5054142;28;20527;-69
2023/03/15 10:21:38;;;;;;;61.03;3.50;;;;;;;;;;5054357;28;20459;-69
2023/03/15 10:24:06;;;;;;;61.07;3.67;;;;;;;;;;5054690;28;20445;-69
2023/03/15 10:26:37;;;;;;;59.57;3.60;;;;;;;;;;5054329;28;20894;-69
2023/03/15 10:29:10;;;;;;;59.33;3.37;;;;;;;;;;5053836;28;20541;-69
2023/03/15 10:31:39;;;;;;;59.00;3.27;;;;;;;;;;5054073;28;20459;-69
2023/03/15 10:34:06;;;;;;;59.50;3.30;;;;;;;;;;5054233;28;20547;-69
2023/03/15 10:36:33;;;;;;;59.83;3.53;;;;;;;;;;5054128;28;20849;-69
2023/03/15 10:39:01;;;;;;;58.47;3.20;;;;;;;;;;5053744;28;20456;-69
2023/03/15 10:41:29;;;;;;;58.60;3.37;;;;;;;;;;5054087;28;20446;-69
2023/03/15 10:44:00;;;;;;;64.20;3.53;;;;;;;;;;5053871;28;20444;-69
2023/03/15 10:46:28;;;;;;;61.73;3.70;;;;;;;;;;5053765;28;20502;-69
2023/03/15 10:48:58;;;;;;;59.37;2.93;;;;;;;;;;5053493;28;20480;-69
2023/03/15 10:51:26;;;;;;;62.00;3.40;;;;;;;;;;5054019;28;20448;-69
2023/03/15 10:53:55;;;;;;;58.93;3.37;;;;;;;;;;5053876;28;20445;-69
2023/03/15 10:56:24;;;;;;;61.63;4.97;;;;;;;;;;5053612;28;20468;-69
2023/03/15 10:58:52;;;;;;;59.50;3.57;;;;;;;;;;5053308;28;20887;-69
2023/03/15 11:01:25;;;;;;;62.30;3.97;;;;;;;;;;5053844;28;20471;-69
2023/03/15 11:04:02;;;;;;;60.37;4.00;;;;;;;;;;5053679;28;20448;-69
2023/03/15 11:06:29;;;;;;;61.80;3.17;;;;;;;;;;5053465;28;20471;-69
2023/03/15 11:09:08;;;;;;;58.80;3.10;;;;;;;;;;5052263;28;20480;-69
2023/03/15 11:11:49;;;;;;;66.43;3.80;;;;;;;;;;5053820;28;20444;-69
2023/03/15 11:14:16;;;;;;;61.63;4.00;;;;;;;;;;5053487;28;20459;-69
2023/03/15 11:16:47;;;;;;;60.87;3.30;;;;;;;;;;5053061;28;21014;-69
2023/03/15 11:19:16;;;;;;;61.23;3.43;;;;;;;;;;5053134;28;20530;-69
2023/03/15 11:21:46;;;;;;;60.07;3.63;;;;;;;;;;5053161;28;20843;-70
2023/03/15 11:24:20;;;;;;;63.43;3.33;;;;;;;;;;5053225;28;20495;-70
2023/03/15 11:26:52;;;;;;;59.07;3.03;;;;;;;;;;5053298;28;20479;-70
2023/03/15 11:29:21;;;;;;;58.07;2.80;;;;;;;;;;5052920;28;20484;-70
2023/03/15 11:31:51;;;;;;;58.77;3.33;;;;;;;;;;5053071;28;20832;-71
2023/03/15 11:34:22;;;;;;;60.77;2.93;;;;;;;;;;5053207;28;20448;-71
2023/03/15 11:36:53;;;;;;;63.13;3.80;;;;;;;;;;5053247;28;20472;-69
2023/03/15 11:39:27;;;;;;;59.70;3.13;;;;;;;;;;5052772;28;20451;-69
2023/03/15 11:41:56;;;;;;;59.03;3.30;;;;;;;;;;5053021;28;20448;-69
2023/03/15 11:44:28;;;;;;;58.97;3.10;;;;;;;;;;5052613;28;20454;-69
2023/03/15 11:46:59;;;;;;;60.77;3.47;;;;;;;;;;5052902;28;20476;-69
2023/03/15 11:49:31;;;;;;;61.77;3.37;;;;;;;;;;5052626;28;20577;-70
2023/03/15 11:51:59;;;;;;;58.47;3.53;;;;;;;;;;5052943;28;20451;-70
2023/03/15 11:54:29;;;;;;;66.07;3.90;;;;;;;;;;5052640;28;20535;-70
2023/03/15 11:56:57;;;;;;;59.23;3.30;;;;;;;;;;5052489;28;20981;-70
2023/03/15 11:59:28;;;;;;;57.90;2.93;;;;;;;;;;5052471;28;20440;-70
2023/03/15 12:01:58;;;;;;;60.60;3.50;;;;;;;;;;5052643;28;20872;-70
2023/03/15 12:04:49;;;;;;;58.77;2.70;;;;;;;;;;5052653;28;20448;-70
2023/03/15 12:07:35;;;;;;;61.40;3.07;;;;;;;;;;5052208;28;20521;-70
2023/03/15 12:10:17;;;;;;;61.50;3.83;;;;;;;;;;5052199;28;20531;-70
2023/03/15 12:12:46;;;;;;;58.70;2.90;;;;;;;;;;5052455;28;20797;-69
2023/03/15 12:15:31;;;;;;;58.67;3.37;;;;;;;;;;5052395;28;20448;-69
2023/03/15 12:17:59;;;;;;;61.50;3.13;;;;;;;;;;5051637;28;20476;-70
2023/03/15 12:20:33;;;;;;;58.80;3.13;;;;;;;;;;5052088;28;20454;-70
2023/03/15 12:23:08;;;;;;;58.77;3.03;;;;;;;;;;5052194;28;20452;-70
2023/03/15 12:25:37;;;;;;;57.47;3.03;;;;;;;;;;5052171;28;20458;-69
2023/03/15 12:28:07;;;;;;;59.07;3.00;;;;;;;;;;5051792;28;21022;-70
2023/03/15 12:30:37;;;;;;;59.27;3.37;;;;;;;;;;5051992;28;20496;-70
2023/03/15 12:33:13;;;;;;;58.77;3.17;;;;;;;;;;5052323;28;20444;-70
2023/03/15 12:35:41;;;;;;;59.03;2.83;;;;;;;;;;5052008;28;20479;-70
2023/03/15 12:38:12;;;;;;;58.30;3.13;;;;;;;;;;5051890;28;20466;-70
2023/03/15 12:40:41;;;;;;;60.03;3.10;;;;;;;;;;5051652;28;20904;-70
2023/03/15 12:43:09;;;;;;;61.80;3.93;;;;;;;;;;5052178;28;20450;-69
2023/03/15 12:45:40;;;;;;;60.70;5.00;;;;;;;;;;5051949;28;20464;-70
2023/03/15 12:48:34;;;;;;;60.77;3.80;;;;;;;;;;5051668;28;20494;-70
2023/03/15 12:51:09;;;;;;;60.53;5.13;;;;;;;;;;4993928;28;20458;-70
2023/03/15 12:53:46;;;;;;;60.60;4.40;;;;;;;;;;5051945;28;20479;-70
2023/03/15 12:56:37;;;;;;;62.77;3.93;;;;;;;;;;5051993;28;20470;-70
2023/03/15 12:59:10;;;;;;;61.30;3.77;;;;;;;;;;5027067;28;20453;-70
2023/03/15 13:01:37;;;;;;;60.70;4.00;;;;;;;;;;5051603;28;20452;-69
2023/03/15 13:04:05;;;;;;;60.50;4.03;;;;;;;;;;5051792;28;20450;-69
2023/03/15 13:06:42;;;;;;;58.70;4.20;;;;;;;;;;5051537;28;20468;-70
2023/03/15 13:09:13;;;;;;;66.33;3.77;;;;;;;;;;5051250;28;20515;-70
2023/03/15 13:11:42;;;;;;;60.07;4.27;;;;;;;;;;5051697;28;20539;-70
2023/03/15 13:14:19;;;;;;;61.33;3.77;;;;;;;;;;5051329;28;20539;-70
2023/03/15 13:16:49;;;;;;;62.67;4.17;;;;;;;;;;5051749;28;20468;-70
2023/03/15 13:19:17;;;;;;;60.57;3.67;;;;;;;;;;5051188;28;20848;-70
2023/03/15 13:21:54;;;;;;;62.50;3.90;;;;;;;;;;5051510;28;20458;-69
2023/03/15 13:24:23;;;;;;;59.60;3.83;;;;;;;;;;5051227;28;20452;-69
2023/03/15 13:26:53;;;;;;;63.23;4.87;;;;;;;;;;5051548;28;20472;-69
2023/03/15 13:29:22;;;;;;;60.20;4.30;;;;;;;;;;5051231;28;20491;-69
2023/03/15 13:32:00;;;;;;;59.37;4.13;;;;;;;;;;5053969;28;20452;-69
2023/03/15 13:34:29;;;;;;;59.90;4.77;;;;;;;;;;5055426;28;20459;-69
2023/03/15 13:37:01;;;;;;;61.97;3.70;;;;;;;;;;5054972;28;21000;-70
2023/03/15 13:39:28;;;;;;;63.07;4.40;;;;;;;;;;5054908;28;20484;-70
2023/03/15 13:41:59;;;;;;;62.20;4.50;;;;;;;;;;5055360;28;20455;-70
2023/03/15 13:44:27;;;;;;;58.90;3.37;;;;;;;;;;5055200;28;20445;-70
2023/03/15 13:46:54;;;;;;;60.60;3.77;;;;;;;;;;5054911;28;20907;-70
2023/03/15 13:49:22;;;;;;;59.20;3.50;;;;;;;;;;5054667;28;20476;-70
2023/03/15 13:51:49;;;;;;;60.07;3.17;;;;;;;;;;5054921;28;20444;-70
2023/03/15 13:54:20;;;;;;;58.23;3.13;;;;;;;;;;5055245;28;20450;-70
2023/03/15 13:56:55;;;;;;;59.03;3.43;;;;;;;;;;5055218;28;20459;-70
2023/03/15 13:59:23;;;;;;;58.97;3.30;;;;;;;;;;5054605;28;20983;-70
2023/03/15 14:01:52;;;;;;;58.67;3.10;;;;;;;;;;5054698;28;20535;-70
2023/03/15 14:04:20;;;;;;;58.40;3.50;;;;;;;;;;5055089;28;20455;-70
2023/03/15 14:06:48;;;;;;;59.77;3.70;;;;;;;;;;5054932;28;20558;-70
2023/03/15 14:09:21;;;;;;;58.23;3.27;;;;;;;;;;5054448;28;20484;-70
2023/03/15 14:12:00;;;;;;;60.90;4.30;;;;;;;;;;5054634;28;20452;-69
2023/03/15 14:14:28;;;;;;;59.37;3.47;;;;;;;;;;5054419;28;20823;-69
2023/03/15 14:16:57;;;;;;;58.90;3.70;;;;;;;;;;5054361;28;20475;-69
2023/03/15 14:19:25;;;;;;;65.83;5.90;;;;;;;;;;5054310;28;20450;-69
2023/03/15 14:21:53;;;;;;;62.00;3.90;;;;;;;;;;5054529;28;20451;-69
2023/03/15 14:24:26;;;;;;;59.30;4.07;;;;;;;;;;5054443;28;20623;-70
2023/03/15 14:26:54;;;;;;;62.37;5.03;;;;;;;;;;5054191;28;20832;-70
2023/03/15 14:29:26;;;;;;;59.00;3.63;;;;;;;;;;5054009;28;20484;-70
2023/03/15 14:31:53;;;;;;;61.97;3.73;;;;;;;;;;5054481;28;20444;-70
2023/03/15 14:34:24;;;;;;;58.40;3.50;;;;;;;;;;5054262;28;20453;-70
2023/03/15 14:36:54;;;;;;;58.40;3.73;;;;;;;;;;5054141;28;20472;-70
2023/03/15 14:39:27;;;;;;;59.10;3.50;;;;;;;;;;5053735;28;20536;-70